sensor_id;sensor_type;location;lat;lon;timestamp;temperature;humidity
23116;DHT22;11727;52.134;5.052;2024-01-30T00:01:15;8.60;99.90
23116;DHT22;11727;52.134;5.052;2024-01-30T00:03:41;8.60;99.90
23116;DHT22;11727;52.134;5.052;2024-01-30T00:06:07;8.50;99.90
23116;DHT22;11727;52.134;5.052;2024-01-30T00:08:33;8.50;99.90
23116;DHT22;11727;52.134;5.052;2024-01-30T00:10:59;8.60;99.90
23116;DHT22;11727;52.134;5.052;2024-01-30T00:13:24;8.50;99.90
23116;DHT22;11727;52.134;5.052;2024-01-30T00:15:50;8.50;99.90
23116;DHT22;11727;52.134;5.052;2024-01-30T00:18:15;8.50;99.90
23116;DHT22;11727;52.134;5.052;2024-01-30T00:20:41;8.50;99.90
23116;DHT22;11727;52.134;5.052;2024-01-30T00:23:08;8.50;99.90
23116;DHT22;11727;52.134;5.052;2024-01-30T00:25:34;8.50;99.90
23116;DHT22;11727;52.134;5.052;2024-01-30T00:27:59;8.50;99.90
23116;DHT22;11727;52.134;5.052;2024-01-30T00:30:25;8.50;99.90
23116;DHT22;11727;52.134;5.052;2024-01-30T00:32:51;8.50;99.90
23116;DHT22;11727;52.134;5.052;2024-01-30T00:35:16;8.50;99.90
23116;DHT22;11727;52.134;5.052;2024-01-30T00:37:42;8.50;99.90
23116;DHT22;11727;52.134;5.052;2024-01-30T00:40:08;8.60;99.90
23116;DHT22;11727;52.134;5.052;2024-01-30T00:42:35;8.50;99.90
23116;DHT22;11727;52.134;5.052;2024-01-30T00:45:01;8.60;99.90
23116;DHT22;11727;52.134;5.052;2024-01-30T00:47:27;8.60;99.90
23116;DHT22;11727;52.134;5.052;2024-01-30T00:49:52;8.60;99.90
23116;DHT22;11727;52.134;5.052;2024-01-30T00:52:20;8.60;99.90
23116;DHT22;11727;52.134;5.052;2024-01-30T00:54:46;8.60;99.90
23116;DHT22;11727;52.134;5.052;2024-01-30T00:57:11;8.60;99.90
23116;DHT22;11727;52.134;5.052;2024-01-30T00:59:37;8.60;99.90
23116;DHT22;11727;52.134;5.052;2024-01-30T01:02:03;8.60;99.90
23116;DHT22;11727;52.134;5.052;2024-01-30T01:04:29;8.50;99.90
23116;DHT22;11727;52.134;5.052;2024-01-30T01:06:55;8.60;99.90
23116;DHT22;11727;52.134;5.052;2024-01-30T01:09:20;8.60;99.90
23116;DHT22;11727;52.134;5.052;2024-01-30T01:11:46;8.60;99.90
23116;DHT22;11727;52.134;5.052;2024-01-30T01:14:11;8.60;99.90
23116;DHT22;11727;52.134;5.052;2024-01-30T01:16:37;8.60;99.90
23116;DHT22;11727;52.134;5.052;2024-01-30T01:19:02;8.60;99.90
23116;DHT22;11727;52.134;5.052;2024-01-30T01:21:28;8.60;99.90
23116;DHT22;11727;52.134;5.052;2024-01-30T01:23:54;8.60;99.90
23116;DHT22;11727;52.134;5.052;2024-01-30T01:26:20;8.60;99.90
23116;DHT22;11727;52.134;5.052;2024-01-30T01:28:45;8.60;99.90
23116;DHT22;11727;52.134;5.052;2024-01-30T01:31:11;8.60;99.90
23116;DHT22;11727;52.134;5.052;2024-01-30T01:33:37;8.60;99.90
23116;DHT22;11727;52.134;5.052;2024-01-30T01:36:03;8.50;99.90
23116;DHT22;11727;52.134;5.052;2024-01-30T01:38:28;8.50;99.90
23116;DHT22;11727;52.134;5.052;2024-01-30T01:40:54;8.50;99.90
23116;DHT22;11727;52.134;5.052;2024-01-30T01:43:20;8.50;99.90
23116;DHT22;11727;52.134;5.052;2024-01-30T01:45:45;8.50;99.90
23116;DHT22;11727;52.134;5.052;2024-01-30T01:48:11;8.50;99.90
23116;DHT22;11727;52.134;5.052;2024-01-30T01:50:38;8.50;99.90
23116;DHT22;11727;52.134;5.052;2024-01-30T01:53:07;8.50;99.90
23116;DHT22;11727;52.134;5.052;2024-01-30T01:55:33;8.40;99.90
23116;DHT22;11727;52.134;5.052;2024-01-30T01:58:00;8.50;99.90
23116;DHT22;11727;52.134;5.052;2024-01-30T02:00:25;8.40;99.90
23116;DHT22;11727;52.134;5.052;2024-01-30T02:02:51;8.40;99.90
23116;DHT22;11727;52.134;5.052;2024-01-30T02:05:19;8.50;99.90
23116;DHT22;11727;52.134;5.052;2024-01-30T02:07:45;8.40;99.90
23116;DHT22;11727;52.134;5.052;2024-01-30T02:10:11;8.50;99.90
23116;DHT22;11727;52.134;5.052;2024-01-30T02:12:36;8.40;99.90
23116;DHT22;11727;52.134;5.052;2024-01-30T02:15:02;8.50;99.90
23116;DHT22;11727;52.134;5.052;2024-01-30T02:17:28;8.50;99.90
23116;DHT22;11727;52.134;5.052;2024-01-30T02:19:54;8.50;99.90
23116;DHT22;11727;52.134;5.052;2024-01-30T02:22:20;8.50;99.90
23116;DHT22;11727;52.134;5.052;2024-01-30T02:24:46;8.50;99.90
23116;DHT22;11727;52.134;5.052;2024-01-30T02:27:12;8.50;99.90
23116;DHT22;11727;52.134;5.052;2024-01-30T02:29:38;8.50;99.90
23116;DHT22;11727;52.134;5.052;2024-01-30T02:32:03;8.50;99.90
23116;DHT22;11727;52.134;5.052;2024-01-30T02:34:29;8.50;99.90
23116;DHT22;11727;52.134;5.052;2024-01-30T02:36:55;8.50;99.90
23116;DHT22;11727;52.134;5.052;2024-01-30T02:39:20;8.60;99.90
23116;DHT22;11727;52.134;5.052;2024-01-30T02:41:46;8.50;99.90
23116;DHT22;11727;52.134;5.052;2024-01-30T02:44:11;8.50;99.90
23116;DHT22;11727;52.134;5.052;2024-01-30T02:46:37;8.60;99.90
23116;DHT22;11727;52.134;5.052;2024-01-30T02:49:03;8.60;99.90
23116;DHT22;11727;52.134;5.052;2024-01-30T02:51:28;8.60;99.90
23116;DHT22;11727;52.134;5.052;2024-01-30T02:53:54;8.50;99.90
23116;DHT22;11727;52.134;5.052;2024-01-30T02:56:19;8.50;99.90
23116;DHT22;11727;52.134;5.052;2024-01-30T02:58:45;8.50;99.90
23116;DHT22;11727;52.134;5.052;2024-01-30T03:01:10;8.40;99.90
23116;DHT22;11727;52.134;5.052;2024-01-30T03:03:36;8.40;99.90
23116;DHT22;11727;52.134;5.052;2024-01-30T03:06:02;8.40;99.90
23116;DHT22;11727;52.134;5.052;2024-01-30T03:08:28;8.30;99.90
23116;DHT22;11727;52.134;5.052;2024-01-30T03:10:53;8.40;99.90
23116;DHT22;11727;52.134;5.052;2024-01-30T03:13:19;8.40;99.90
23116;DHT22;11727;52.134;5.052;2024-01-30T03:15:45;8.40;99.90
23116;DHT22;11727;52.134;5.052;2024-01-30T03:18:10;8.40;99.90
23116;DHT22;11727;52.134;5.052;2024-01-30T03:20:36;8.40;99.90
23116;DHT22;11727;52.134;5.052;2024-01-30T03:23:01;8.40;99.90
23116;DHT22;11727;52.134;5.052;2024-01-30T03:25:28;8.40;99.90
23116;DHT22;11727;52.134;5.052;2024-01-30T03:27:53;8.40;99.90
23116;DHT22;11727;52.134;5.052;2024-01-30T03:30:19;8.40;99.90
23116;DHT22;11727;52.134;5.052;2024-01-30T03:32:44;8.40;99.90
23116;DHT22;11727;52.134;5.052;2024-01-30T03:35:10;8.40;99.90
23116;DHT22;11727;52.134;5.052;2024-01-30T03:37:36;8.50;99.90
23116;DHT22;11727;52.134;5.052;2024-01-30T03:40:02;8.50;99.90
23116;DHT22;11727;52.134;5.052;2024-01-30T03:42:28;8.50;99.90
23116;DHT22;11727;52.134;5.052;2024-01-30T03:44:54;8.50;99.90
23116;DHT22;11727;52.134;5.052;2024-01-30T03:47:20;8.40;99.90
23116;DHT22;11727;52.134;5.052;2024-01-30T03:49:46;8.50;99.90
23116;DHT22;11727;52.134;5.052;2024-01-30T03:52:12;8.50;99.90
23116;DHT22;11727;52.134;5.052;2024-01-30T03:54:37;8.50;99.90
23116;DHT22;11727;52.134;5.052;2024-01-30T03:57:03;8.50;99.90
23116;DHT22;11727;52.134;5.052;2024-01-30T03:59:29;8.50;99.90
23116;DHT22;11727;52.134;5.052;2024-01-30T04:01:55;8.50;99.90
23116;DHT22;11727;52.134;5.052;2024-01-30T04:04:20;8.50;99.90
23116;DHT22;11727;52.134;5.052;2024-01-30T04:06:46;8.50;99.90
23116;DHT22;11727;52.134;5.052;2024-01-30T04:09:12;8.50;99.90
23116;DHT22;11727;52.134;5.052;2024-01-30T04:11:39;8.50;99.90
23116;DHT22;11727;52.134;5.052;2024-01-30T04:14:05;8.50;99.90
23116;DHT22;11727;52.134;5.052;2024-01-30T04:16:31;8.50;99.90
23116;DHT22;11727;52.134;5.052;2024-01-30T04:18:57;8.50;99.90
23116;DHT22;11727;52.134;5.052;2024-01-30T04:21:23;8.50;99.90
23116;DHT22;11727;52.134;5.052;2024-01-30T04:23:50;8.60;99.90
23116;DHT22;11727;52.134;5.052;2024-01-30T04:26:16;8.50;99.90
23116;DHT22;11727;52.134;5.052;2024-01-30T04:28:42;8.50;99.90
23116;DHT22;11727;52.134;5.052;2024-01-30T04:31:07;8.60;99.90
23116;DHT22;11727;52.134;5.052;2024-01-30T04:33:33;8.60;99.90
23116;DHT22;11727;52.134;5.052;2024-01-30T04:35:59;8.60;99.90
23116;DHT22;11727;52.134;5.052;2024-01-30T04:38:25;8.60;99.90
23116;DHT22;11727;52.134;5.052;2024-01-30T04:40:50;8.60;99.90
23116;DHT22;11727;52.134;5.052;2024-01-30T04:43:16;8.60;99.90
23116;DHT22;11727;52.134;5.052;2024-01-30T04:45:42;8.60;99.90
23116;DHT22;11727;52.134;5.052;2024-01-30T04:48:07;8.60;99.90
23116;DHT22;11727;52.134;5.052;2024-01-30T04:50:33;8.60;99.90
23116;DHT22;11727;52.134;5.052;2024-01-30T04:52:58;8.60;99.90
23116;DHT22;11727;52.134;5.052;2024-01-30T04:55:24;8.60;99.90
23116;DHT22;11727;52.134;5.052;2024-01-30T04:57:50;8.60;99.90
23116;DHT22;11727;52.134;5.052;2024-01-30T05:00:15;8.70;99.90
23116;DHT22;11727;52.134;5.052;2024-01-30T05:02:41;8.70;99.90
23116;DHT22;11727;52.134;5.052;2024-01-30T05:05:07;8.70;99.90
23116;DHT22;11727;52.134;5.052;2024-01-30T05:07:33;8.70;99.90
23116;DHT22;11727;52.134;5.052;2024-01-30T05:09:59;8.80;99.90
23116;DHT22;11727;52.134;5.052;2024-01-30T05:12:25;8.80;99.90
23116;DHT22;11727;52.134;5.052;2024-01-30T05:14:51;8.80;99.90
23116;DHT22;11727;52.134;5.052;2024-01-30T05:17:17;8.80;99.90
23116;DHT22;11727;52.134;5.052;2024-01-30T05:19:43;8.90;99.90
23116;DHT22;11727;52.134;5.052;2024-01-30T05:22:09;8.90;99.90
23116;DHT22;11727;52.134;5.052;2024-01-30T05:24:35;8.90;99.90
23116;DHT22;11727;52.134;5.052;2024-01-30T05:27:01;8.90;99.90
23116;DHT22;11727;52.134;5.052;2024-01-30T05:29:27;8.90;99.90
23116;DHT22;11727;52.134;5.052;2024-01-30T05:31:52;8.90;99.90
23116;DHT22;11727;52.134;5.052;2024-01-30T05:34:18;8.90;99.90
23116;DHT22;11727;52.134;5.052;2024-01-30T05:36:44;9.00;99.90
23116;DHT22;11727;52.134;5.052;2024-01-30T05:39:09;9.00;99.90
23116;DHT22;11727;52.134;5.052;2024-01-30T05:41:35;9.00;99.90
23116;DHT22;11727;52.134;5.052;2024-01-30T05:44:01;9.00;99.90
23116;DHT22;11727;52.134;5.052;2024-01-30T05:46:27;9.00;99.90
23116;DHT22;11727;52.134;5.052;2024-01-30T05:48:52;9.00;99.90
23116;DHT22;11727;52.134;5.052;2024-01-30T05:51:18;9.10;99.90
23116;DHT22;11727;52.134;5.052;2024-01-30T05:53:44;9.10;99.90
23116;DHT22;11727;52.134;5.052;2024-01-30T05:56:09;9.10;99.90
23116;DHT22;11727;52.134;5.052;2024-01-30T05:58:35;9.10;99.90
23116;DHT22;11727;52.134;5.052;2024-01-30T06:01:06;9.10;99.90
23116;DHT22;11727;52.134;5.052;2024-01-30T06:03:32;9.10;99.90
23116;DHT22;11727;52.134;5.052;2024-01-30T06:05:57;9.10;99.90
23116;DHT22;11727;52.134;5.052;2024-01-30T06:08:23;9.10;99.90
23116;DHT22;11727;52.134;5.052;2024-01-30T06:10:51;9.20;99.90
23116;DHT22;11727;52.134;5.052;2024-01-30T06:13:16;9.10;99.90
23116;DHT22;11727;52.134;5.052;2024-01-30T06:15:42;9.10;99.90
23116;DHT22;11727;52.134;5.052;2024-01-30T06:18:08;9.10;99.90
23116;DHT22;11727;52.134;5.052;2024-01-30T06:20:34;9.20;99.90
23116;DHT22;11727;52.134;5.052;2024-01-30T06:22:59;9.20;99.90
23116;DHT22;11727;52.134;5.052;2024-01-30T06:25:25;9.20;99.90
23116;DHT22;11727;52.134;5.052;2024-01-30T06:27:50;9.20;99.90
23116;DHT22;11727;52.134;5.052;2024-01-30T06:30:16;9.20;99.90
23116;DHT22;11727;52.134;5.052;2024-01-30T06:32:42;9.20;99.90
23116;DHT22;11727;52.134;5.052;2024-01-30T06:35:08;9.20;99.90
23116;DHT22;11727;52.134;5.052;2024-01-30T06:37:34;9.20;99.90
23116;DHT22;11727;52.134;5.052;2024-01-30T06:39:59;9.30;99.90
23116;DHT22;11727;52.134;5.052;2024-01-30T06:42:25;9.30;99.90
23116;DHT22;11727;52.134;5.052;2024-01-30T06:44:50;9.30;99.90
23116;DHT22;11727;52.134;5.052;2024-01-30T06:47:16;9.30;99.90
23116;DHT22;11727;52.134;5.052;2024-01-30T06:49:42;9.30;99.90
23116;DHT22;11727;52.134;5.052;2024-01-30T06:52:09;9.30;99.90
23116;DHT22;11727;52.134;5.052;2024-01-30T06:54:34;9.40;99.90
23116;DHT22;11727;52.134;5.052;2024-01-30T06:57:00;9.30;99.90
23116;DHT22;11727;52.134;5.052;2024-01-30T06:59:26;9.40;99.90
23116;DHT22;11727;52.134;5.052;2024-01-30T07:01:51;9.40;99.90
23116;DHT22;11727;52.134;5.052;2024-01-30T07:04:17;9.40;99.90
23116;DHT22;11727;52.134;5.052;2024-01-30T07:06:44;9.40;99.90
23116;DHT22;11727;52.134;5.052;2024-01-30T07:09:09;9.40;99.90
23116;DHT22;11727;52.134;5.052;2024-01-30T07:11:35;9.50;99.90
23116;DHT22;11727;52.134;5.052;2024-01-30T07:14:00;9.50;99.90
23116;DHT22;11727;52.134;5.052;2024-01-30T07:16:29;9.50;99.90
23116;DHT22;11727;52.134;5.052;2024-01-30T07:18:54;9.50;99.90
23116;DHT22;11727;52.134;5.052;2024-01-30T07:21:21;9.50;99.90
23116;DHT22;11727;52.134;5.052;2024-01-30T07:23:50;9.50;99.90
23116;DHT22;11727;52.134;5.052;2024-01-30T07:26:16;9.50;99.90
23116;DHT22;11727;52.134;5.052;2024-01-30T07:28:41;9.60;99.90
23116;DHT22;11727;52.134;5.052;2024-01-30T07:31:08;9.60;99.90
23116;DHT22;11727;52.134;5.052;2024-01-30T07:33:33;9.60;99.90
23116;DHT22;11727;52.134;5.052;2024-01-30T07:35:59;9.70;99.90
23116;DHT22;11727;52.134;5.052;2024-01-30T07:38:25;9.70;99.90
23116;DHT22;11727;52.134;5.052;2024-01-30T07:40:50;9.70;99.90
23116;DHT22;11727;52.134;5.052;2024-01-30T07:43:16;9.80;99.90
23116;DHT22;11727;52.134;5.052;2024-01-30T07:45:42;9.80;99.90
23116;DHT22;11727;52.134;5.052;2024-01-30T07:48:07;9.90;99.90
23116;DHT22;11727;52.134;5.052;2024-01-30T07:50:33;9.90;99.90
23116;DHT22;11727;52.134;5.052;2024-01-30T07:53:00;9.90;99.90
23116;DHT22;11727;52.134;5.052;2024-01-30T07:55:26;9.90;99.90
23116;DHT22;11727;52.134;5.052;2024-01-30T07:57:57;9.90;99.90
23116;DHT22;11727;52.134;5.052;2024-01-30T08:00:22;10.00;99.90
23116;DHT22;11727;52.134;5.052;2024-01-30T08:02:48;10.00;99.90
23116;DHT22;11727;52.134;5.052;2024-01-30T08:05:14;10.00;99.90
23116;DHT22;11727;52.134;5.052;2024-01-30T08:07:41;10.00;99.90
23116;DHT22;11727;52.134;5.052;2024-01-30T08:10:08;10.00;99.90
23116;DHT22;11727;52.134;5.052;2024-01-30T08:12:33;10.10;99.90
23116;DHT22;11727;52.134;5.052;2024-01-30T08:14:59;10.10;99.90
23116;DHT22;11727;52.134;5.052;2024-01-30T08:17:25;10.10;99.90
23116;DHT22;11727;52.134;5.052;2024-01-30T08:19:50;10.10;99.90
23116;DHT22;11727;52.134;5.052;2024-01-30T08:22:16;10.20;99.90
23116;DHT22;11727;52.134;5.052;2024-01-30T08:24:41;10.20;99.90
23116;DHT22;11727;52.134;5.052;2024-01-30T08:27:07;10.20;99.90
23116;DHT22;11727;52.134;5.052;2024-01-30T08:29:37;10.30;99.90
23116;DHT22;11727;52.134;5.052;2024-01-30T08:32:05;10.30;99.90
23116;DHT22;11727;52.134;5.052;2024-01-30T08:34:30;10.30;99.90
23116;DHT22;11727;52.134;5.052;2024-01-30T08:36:56;10.30;99.90
23116;DHT22;11727;52.134;5.052;2024-01-30T08:39:22;10.30;99.90
23116;DHT22;11727;52.134;5.052;2024-01-30T08:41:47;10.40;99.90
23116;DHT22;11727;52.134;5.052;2024-01-30T08:44:13;10.40;99.90
23116;DHT22;11727;52.134;5.052;2024-01-30T08:46:38;10.40;99.90
23116;DHT22;11727;52.134;5.052;2024-01-30T08:49:04;10.50;99.90
23116;DHT22;11727;52.134;5.052;2024-01-30T08:51:30;10.50;99.90
23116;DHT22;11727;52.134;5.052;2024-01-30T08:53:56;10.60;99.90
23116;DHT22;11727;52.134;5.052;2024-01-30T08:56:22;10.60;99.90
23116;DHT22;11727;52.134;5.052;2024-01-30T08:58:48;10.60;99.90
23116;DHT22;11727;52.134;5.052;2024-01-30T09:01:14;10.70;99.90
23116;DHT22;11727;52.134;5.052;2024-01-30T09:03:39;10.70;99.90
23116;DHT22;11727;52.134;5.052;2024-01-30T09:06:10;10.80;99.90
23116;DHT22;11727;52.134;5.052;2024-01-30T09:08:35;10.80;99.90
23116;DHT22;11727;52.134;5.052;2024-01-30T09:11:02;10.80;99.90
23116;DHT22;11727;52.134;5.052;2024-01-30T09:13:33;10.80;99.90
23116;DHT22;11727;52.134;5.052;2024-01-30T09:15:58;10.90;99.90
23116;DHT22;11727;52.134;5.052;2024-01-30T09:18:24;10.80;99.90
23116;DHT22;11727;52.134;5.052;2024-01-30T09:20:50;10.80;99.90
23116;DHT22;11727;52.134;5.052;2024-01-30T09:23:15;10.80;99.90
23116;DHT22;11727;52.134;5.052;2024-01-30T09:25:42;10.80;99.90
23116;DHT22;11727;52.134;5.052;2024-01-30T09:28:08;10.80;99.90
23116;DHT22;11727;52.134;5.052;2024-01-30T09:30:34;10.90;99.90
23116;DHT22;11727;52.134;5.052;2024-01-30T09:32:59;10.90;99.90
23116;DHT22;11727;52.134;5.052;2024-01-30T09:35:25;10.90;99.90
23116;DHT22;11727;52.134;5.052;2024-01-30T09:37:51;11.00;99.90
23116;DHT22;11727;52.134;5.052;2024-01-30T09:40:18;11.00;99.90
23116;DHT22;11727;52.134;5.052;2024-01-30T09:42:47;11.00;99.90
23116;DHT22;11727;52.134;5.052;2024-01-30T09:45:14;11.10;99.90
23116;DHT22;11727;52.134;5.052;2024-01-30T09:47:41;11.10;99.90
23116;DHT22;11727;52.134;5.052;2024-01-30T09:50:09;11.20;99.90
23116;DHT22;11727;52.134;5.052;2024-01-30T09:52:36;11.20;99.90
23116;DHT22;11727;52.134;5.052;2024-01-30T09:55:02;11.20;99.90
23116;DHT22;11727;52.134;5.052;2024-01-30T09:57:28;11.30;99.90
23116;DHT22;11727;52.134;5.052;2024-01-30T09:59:54;11.30;99.90
23116;DHT22;11727;52.134;5.052;2024-01-30T10:02:20;11.30;99.90
23116;DHT22;11727;52.134;5.052;2024-01-30T10:04:50;11.40;99.90
23116;DHT22;11727;52.134;5.052;2024-01-30T10:07:17;11.50;99.90
23116;DHT22;11727;52.134;5.052;2024-01-30T10:09:44;11.50;99.90
23116;DHT22;11727;52.134;5.052;2024-01-30T10:12:10;11.60;99.90
23116;DHT22;11727;52.134;5.052;2024-01-30T10:14:39;11.60;99.90
23116;DHT22;11727;52.134;5.052;2024-01-30T10:17:07;11.60;99.90
23116;DHT22;11727;52.134;5.052;2024-01-30T10:19:32;11.60;99.90
23116;DHT22;11727;52.134;5.052;2024-01-30T10:22:00;11.60;99.90
23116;DHT22;11727;52.134;5.052;2024-01-30T10:24:26;11.60;99.90
23116;DHT22;11727;52.134;5.052;2024-01-30T10:26:53;11.60;99.90
23116;DHT22;11727;52.134;5.052;2024-01-30T10:29:19;11.60;99.90
23116;DHT22;11727;52.134;5.052;2024-01-30T10:31:44;11.60;99.90
23116;DHT22;11727;52.134;5.052;2024-01-30T10:34:10;11.60;99.90
23116;DHT22;11727;52.134;5.052;2024-01-30T10:36:43;11.50;99.90
23116;DHT22;11727;52.134;5.052;2024-01-30T10:39:13;11.60;99.90
23116;DHT22;11727;52.134;5.052;2024-01-30T10:41:45;11.60;99.90
23116;DHT22;11727;52.134;5.052;2024-01-30T10:44:21;11.60;99.90
23116;DHT22;11727;52.134;5.052;2024-01-30T10:46:54;11.60;99.90
23116;DHT22;11727;52.134;5.052;2024-01-30T10:49:22;11.50;99.90
23116;DHT22;11727;52.134;5.052;2024-01-30T10:51:49;11.50;99.90
23116;DHT22;11727;52.134;5.052;2024-01-30T10:54:15;11.50;99.90
23116;DHT22;11727;52.134;5.052;2024-01-30T10:56:43;11.40;99.90
23116;DHT22;11727;52.134;5.052;2024-01-30T10:59:09;11.40;99.90
23116;DHT22;11727;52.134;5.052;2024-01-30T11:01:35;11.30;99.90
23116;DHT22;11727;52.134;5.052;2024-01-30T11:04:01;11.10;99.90
23116;DHT22;11727;52.134;5.052;2024-01-30T11:06:27;11.00;99.90
23116;DHT22;11727;52.134;5.052;2024-01-30T11:09:03;10.90;99.90
23116;DHT22;11727;52.134;5.052;2024-01-30T11:11:57;10.80;99.90
23116;DHT22;11727;52.134;5.052;2024-01-30T11:14:28;10.70;99.90
23116;DHT22;11727;52.134;5.052;2024-01-30T11:16:57;10.70;99.90
23116;DHT22;11727;52.134;5.052;2024-01-30T11:19:23;10.60;99.90
23116;DHT22;11727;52.134;5.052;2024-01-30T11:21:51;10.60;99.90
23116;DHT22;11727;52.134;5.052;2024-01-30T11:24:25;10.50;99.90
23116;DHT22;11727;52.134;5.052;2024-01-30T11:26:58;10.50;99.90
23116;DHT22;11727;52.134;5.052;2024-01-30T11:29:25;10.40;99.90
23116;DHT22;11727;52.134;5.052;2024-01-30T11:31:58;10.40;99.90
23116;DHT22;11727;52.134;5.052;2024-01-30T11:34:24;10.40;99.90
23116;DHT22;11727;52.134;5.052;2024-01-30T11:36:56;10.30;99.90
23116;DHT22;11727;52.134;5.052;2024-01-30T11:39:25;10.20;99.90
23116;DHT22;11727;52.134;5.052;2024-01-30T11:41:52;10.20;99.90
23116;DHT22;11727;52.134;5.052;2024-01-30T11:44:22;10.20;99.90
23116;DHT22;11727;52.134;5.052;2024-01-30T11:46:52;10.20;99.90
23116;DHT22;11727;52.134;5.052;2024-01-30T11:49:21;10.10;99.90
23116;DHT22;11727;52.134;5.052;2024-01-30T11:51:47;10.10;99.90
23116;DHT22;11727;52.134;5.052;2024-01-30T11:54:15;10.00;99.90
23116;DHT22;11727;52.134;5.052;2024-01-30T11:56:42;10.00;99.90
23116;DHT22;11727;52.134;5.052;2024-01-30T11:59:08;9.90;99.90
23116;DHT22;11727;52.134;5.052;2024-01-30T12:01:34;9.80;99.90
23116;DHT22;11727;52.134;5.052;2024-01-30T12:04:00;9.80;99.90
23116;DHT22;11727;52.134;5.052;2024-01-30T12:06:25;9.70;99.90
23116;DHT22;11727;52.134;5.052;2024-01-30T12:09:02;9.70;99.90
23116;DHT22;11727;52.134;5.052;2024-01-30T12:11:30;9.70;99.90
23116;DHT22;11727;52.134;5.052;2024-01-30T12:13:56;9.60;99.90
23116;DHT22;11727;52.134;5.052;2024-01-30T12:16:22;9.60;99.90
23116;DHT22;11727;52.134;5.052;2024-01-30T12:18:48;9.60;99.90
23116;DHT22;11727;52.134;5.052;2024-01-30T12:21:16;9.60;99.90
23116;DHT22;11727;52.134;5.052;2024-01-30T12:23:43;9.60;99.90
23116;DHT22;11727;52.134;5.052;2024-01-30T12:26:10;9.50;99.90
23116;DHT22;11727;52.134;5.052;2024-01-30T12:28:36;9.50;99.90
23116;DHT22;11727;52.134;5.052;2024-01-30T12:31:05;9.60;99.90
23116;DHT22;11727;52.134;5.052;2024-01-30T12:33:31;9.60;99.90
23116;DHT22;11727;52.134;5.052;2024-01-30T12:35:57;9.60;99.90
23116;DHT22;11727;52.134;5.052;2024-01-30T12:38:27;9.70;99.90
23116;DHT22;11727;52.134;5.052;2024-01-30T12:40:55;9.70;99.90
23116;DHT22;11727;52.134;5.052;2024-01-30T12:43:22;9.60;99.90
23116;DHT22;11727;52.134;5.052;2024-01-30T12:45:49;9.60;99.90
23116;DHT22;11727;52.134;5.052;2024-01-30T12:48:15;9.50;99.90
23116;DHT22;11727;52.134;5.052;2024-01-30T12:50:41;9.50;99.90
23116;DHT22;11727;52.134;5.052;2024-01-30T12:53:06;9.40;99.90
23116;DHT22;11727;52.134;5.052;2024-01-30T12:55:32;9.50;99.90
23116;DHT22;11727;52.134;5.052;2024-01-30T12:57:58;9.40;99.90
23116;DHT22;11727;52.134;5.052;2024-01-30T13:00:23;9.40;99.90
23116;DHT22;11727;52.134;5.052;2024-01-30T13:02:49;9.40;99.90
23116;DHT22;11727;52.134;5.052;2024-01-30T13:05:15;9.40;99.90
23116;DHT22;11727;52.134;5.052;2024-01-30T13:07:41;9.40;99.90
23116;DHT22;11727;52.134;5.052;2024-01-30T13:10:07;9.40;99.90
23116;DHT22;11727;52.134;5.052;2024-01-30T13:12:32;9.30;99.90
23116;DHT22;11727;52.134;5.052;2024-01-30T13:14:59;9.20;99.90
23116;DHT22;11727;52.134;5.052;2024-01-30T13:17:27;9.20;99.90
23116;DHT22;11727;52.134;5.052;2024-01-30T13:19:53;9.20;99.90
23116;DHT22;11727;52.134;5.052;2024-01-30T13:22:19;9.20;99.90
23116;DHT22;11727;52.134;5.052;2024-01-30T13:24:47;9.20;99.90
23116;DHT22;11727;52.134;5.052;2024-01-30T13:27:12;9.10;99.90
23116;DHT22;11727;52.134;5.052;2024-01-30T13:29:38;9.10;99.90
23116;DHT22;11727;52.134;5.052;2024-01-30T13:32:04;9.10;99.90
23116;DHT22;11727;52.134;5.052;2024-01-30T13:34:30;9.10;99.90
23116;DHT22;11727;52.134;5.052;2024-01-30T13:36:55;9.10;99.90
23116;DHT22;11727;52.134;5.052;2024-01-30T13:39:21;9.00;99.90
23116;DHT22;11727;52.134;5.052;2024-01-30T13:41:47;9.00;99.90
23116;DHT22;11727;52.134;5.052;2024-01-30T13:44:13;9.00;99.90
23116;DHT22;11727;52.134;5.052;2024-01-30T13:46:41;8.90;99.90
23116;DHT22;11727;52.134;5.052;2024-01-30T13:49:07;8.80;99.90
23116;DHT22;11727;52.134;5.052;2024-01-30T13:51:33;8.80;99.90
23116;DHT22;11727;52.134;5.052;2024-01-30T13:53:58;8.70;99.90
23116;DHT22;11727;52.134;5.052;2024-01-30T13:56:24;8.60;99.90
23116;DHT22;11727;52.134;5.052;2024-01-30T13:58:51;8.60;99.90
23116;DHT22;11727;52.134;5.052;2024-01-30T14:01:16;8.60;99.90
23116;DHT22;11727;52.134;5.052;2024-01-30T14:03:42;8.50;99.90
23116;DHT22;11727;52.134;5.052;2024-01-30T14:06:08;8.40;99.90
23116;DHT22;11727;52.134;5.052;2024-01-30T14:08:33;8.50;99.90
23116;DHT22;11727;52.134;5.052;2024-01-30T14:10:59;8.40;99.90
23116;DHT22;11727;52.134;5.052;2024-01-30T14:13:25;8.40;99.90
23116;DHT22;11727;52.134;5.052;2024-01-30T14:15:53;8.30;99.90
23116;DHT22;11727;52.134;5.052;2024-01-30T14:18:19;8.30;99.90
23116;DHT22;11727;52.134;5.052;2024-01-30T14:20:45;8.30;99.90
23116;DHT22;11727;52.134;5.052;2024-01-30T14:23:11;8.40;99.90
23116;DHT22;11727;52.134;5.052;2024-01-30T14:25:37;8.30;99.90
23116;DHT22;11727;52.134;5.052;2024-01-30T14:28:02;8.30;99.90
23116;DHT22;11727;52.134;5.052;2024-01-30T14:30:28;8.40;99.90
23116;DHT22;11727;52.134;5.052;2024-01-30T14:32:53;8.40;99.90
23116;DHT22;11727;52.134;5.052;2024-01-30T14:35:20;8.40;99.90
23116;DHT22;11727;52.134;5.052;2024-01-30T14:37:45;8.40;99.90
23116;DHT22;11727;52.134;5.052;2024-01-30T14:40:11;8.40;99.90
23116;DHT22;11727;52.134;5.052;2024-01-30T14:42:36;8.40;99.90
23116;DHT22;11727;52.134;5.052;2024-01-30T14:45:03;8.40;99.90
23116;DHT22;11727;52.134;5.052;2024-01-30T14:47:29;8.40;99.90
23116;DHT22;11727;52.134;5.052;2024-01-30T14:49:56;8.40;99.90
23116;DHT22;11727;52.134;5.052;2024-01-30T14:52:22;8.40;99.90
23116;DHT22;11727;52.134;5.052;2024-01-30T14:54:48;8.40;99.90
23116;DHT22;11727;52.134;5.052;2024-01-30T14:57:13;8.30;99.90
23116;DHT22;11727;52.134;5.052;2024-01-30T14:59:40;8.30;99.90
23116;DHT22;11727;52.134;5.052;2024-01-30T15:02:06;8.20;99.90
23116;DHT22;11727;52.134;5.052;2024-01-30T15:04:31;8.30;99.90
23116;DHT22;11727;52.134;5.052;2024-01-30T15:06:57;8.30;99.90
23116;DHT22;11727;52.134;5.052;2024-01-30T15:09:23;8.30;99.90
23116;DHT22;11727;52.134;5.052;2024-01-30T15:11:51;8.20;99.90
23116;DHT22;11727;52.134;5.052;2024-01-30T15:14:17;8.20;99.90
23116;DHT22;11727;52.134;5.052;2024-01-30T15:16:43;8.20;99.90
23116;DHT22;11727;52.134;5.052;2024-01-30T15:19:08;8.20;99.90
23116;DHT22;11727;52.134;5.052;2024-01-30T15:21:34;8.20;99.90
23116;DHT22;11727;52.134;5.052;2024-01-30T15:23:59;8.20;99.90
23116;DHT22;11727;52.134;5.052;2024-01-30T15:26:25;8.20;99.90
23116;DHT22;11727;52.134;5.052;2024-01-30T15:28:51;8.20;99.90
23116;DHT22;11727;52.134;5.052;2024-01-30T15:31:17;8.20;99.90
23116;DHT22;11727;52.134;5.052;2024-01-30T15:33:42;8.10;99.90
23116;DHT22;11727;52.134;5.052;2024-01-30T15:36:08;8.10;99.90